Archie C. Settoon — WDD4754 — position and weather

sailwx.info

Track history (hours):
 
Tides and Currents Weather Stations Pressure Air Temp Water Temp Dewpoint Dewpoint Depression Visibility Wind Speed Wind Dir Waves Ship Positions

Archie C. Settoon

Owner: Settoon Towing, LLC, Gibson, LA. More information available from US FCC via Universal Licensing System and Coast Guard Vessel Documentation Center.

Last reported at 2017-Nov-20 00:30 UTC. Time now 2017-Nov-21 19:15 UTC.
Position N 30°02' W 093°14'.

Length 18 m.

Type: Tug. MMSI: 367113590.

Date/timePositionNaut miles runAvg speedWind from/ knotsBaromVisibWave heightAir tempDewpointWater temp
2017-Nov-20 00:30N 30°02' W 093°14'3 5.7
2017-Nov-20 00:00N 30°04' W 093°16'3 5.5
2017-Nov-19 23:30N 30°06' W 093°18'0 0.1
2017-Nov-19 23:00N 30°06' W 093°18'0 0.0
2017-Nov-19 22:30N 30°06' W 093°18'0 0.0
2017-Nov-19 22:00N 30°06' W 093°18'0 0.0
2017-Nov-19 21:30N 30°06' W 093°18'0 0.0
2017-Nov-19 21:00N 30°06' W 093°18'0 0.0
2017-Nov-19 20:30N 30°06' W 093°18'0 0.2
2017-Nov-19 20:00N 30°06' W 093°18'2 4.4
2017-Nov-19 19:30N 30°08' W 093°20'1 1.7
2017-Nov-19 19:00N 30°08' W 093°19'0 0.0
2017-Nov-19 18:30N 30°08' W 093°19'0 0.0
2017-Nov-19 18:00N 30°08' W 093°19'0 0.0
2017-Nov-19 17:30N 30°08' W 093°19'0 0.0
2017-Nov-19 17:00N 30°08' W 093°19'0 0.0
2017-Nov-19 16:30N 30°08' W 093°19'0 0.0
2017-Nov-19 16:00N 30°08' W 093°19'0 0.0
2017-Nov-19 15:30N 30°08' W 093°19'0 0.0
2017-Nov-19 15:00N 30°08' W 093°19'0 0.0
2017-Nov-19 14:30N 30°08' W 093°19'0 0.0
2017-Nov-19 14:00N 30°08' W 093°19'0 0.0
2017-Nov-19 13:30N 30°08' W 093°19'0 0.0
2017-Nov-19 13:00N 30°08' W 093°19'0 0.1
2017-Nov-19 12:30N 30°08' W 093°19'1 3.0
2017-Nov-19 12:00N 30°07' W 093°20'1 2.7
2017-Nov-19 11:30N 30°06' W 093°19'2 3.4
2017-Nov-19 11:00N 30°05' W 093°17'1 3.0
2017-Nov-19 10:30N 30°04' W 093°16'0 0.0
2017-Nov-19 10:00N 30°04' W 093°16'0 0.0
2017-Nov-19 09:30N 30°04' W 093°16'0 0.0
2017-Nov-19 09:00N 30°04' W 093°16'0 0.0
2017-Nov-19 08:30N 30°04' W 093°16'0 0.0
2017-Nov-19 08:00N 30°04' W 093°16'0 0.0
2017-Nov-19 07:30N 30°04' W 093°16'0 0.0
2017-Nov-19 07:00N 30°04' W 093°16'0 0.0
2017-Nov-19 06:30N 30°04' W 093°16'0 0.0
2017-Nov-19 06:00N 30°04' W 093°16'0 0.0
2017-Nov-19 05:30N 30°04' W 093°16'0 0.0
2017-Nov-19 05:00N 30°04' W 093°16'0 0.3
2017-Nov-19 04:30N 30°04' W 093°16'1 2.6
2017-Nov-19 04:00N 30°03' W 093°16'1 1.4
2017-Nov-19 03:30N 30°02' W 093°15'0 0.1
2017-Nov-19 03:00N 30°02' W 093°15'0 0.0
2017-Nov-19 02:30N 30°02' W 093°15'0 0.0
2017-Nov-19 02:00N 30°02' W 093°15'1 2.1
2017-Nov-19 01:30N 30°02' W 093°14'0 0.8
2017-Nov-19 01:00N 30°01' W 093°14'1 1.6
2017-Nov-19 00:30N 30°00' W 093°14'3 5.5
2017-Nov-19 00:00N 29°58' W 093°12'3 5.7
2017-Nov-18 23:30N 29°56' W 093°09'3 5.5
2017-Nov-18 23:00N 29°56' W 093°06'2 3.2
2017-Nov-18 22:28N 29°56' W 093°04'0 0.0
2017-Nov-18 21:55N 29°56' W 093°04'0 0.0
2017-Nov-18 21:24N 29°56' W 093°04'0 0.0
2017-Nov-18 20:55N 29°56' W 093°04'0 0.0
2017-Nov-18 20:30N 29°56' W 093°04'0 0.0
2017-Nov-18 19:59N 29°56' W 093°04'0 0.0
2017-Nov-18 19:30N 29°56' W 093°04'0 0.0
2017-Nov-18 19:00N 29°56' W 093°04'0 0.0
2017-Nov-18 18:27N 29°56' W 093°04'0 0.0
2017-Nov-18 17:54N 29°56' W 093°04'0 0.0
2017-Nov-18 17:23N 29°56' W 093°04'0 0.0
2017-Nov-18 16:52N 29°56' W 093°04'0 0.0
2017-Nov-18 15:46N 29°56' W 093°04'0 0.0
2017-Nov-18 15:20N 29°56' W 093°04'0 0.0
2017-Nov-18 14:20N 29°56' W 093°04'0 0.0
2017-Nov-18 13:57N 29°56' W 093°04'0 0.0
2017-Nov-18 13:29N 29°56' W 093°04'0 0.0
2017-Nov-18 13:00N 29°56' W 093°04'0 0.0
2017-Nov-18 12:29N 29°56' W 093°04'0 0.0
2017-Nov-18 11:52N 29°56' W 093°04'0 0.0
2017-Nov-18 11:28N 29°56' W 093°04'0 0.0
2017-Nov-18 10:53N 29°56' W 093°04'0 0.0
2017-Nov-18 10:30N 29°56' W 093°04'0 0.0
2017-Nov-18 09:58N 29°56' W 093°04'0 0.0
2017-Nov-18 09:30N 29°56' W 093°04'0 0.0
2017-Nov-18 08:59N 29°56' W 093°04'0 0.0
2017-Nov-18 08:30N 29°56' W 093°04'0 0.0
2017-Nov-18 07:59N 29°56' W 093°04'0 0.0
2017-Nov-18 07:29N 29°56' W 093°04'0 0.0
2017-Nov-18 06:59N 29°56' W 093°04'0 0.0
2017-Nov-18 06:28N 29°56' W 093°04'0 0.0
2017-Nov-18 05:59N 29°56' W 093°04'0 0.0
2017-Nov-18 05:29N 29°56' W 093°04'0 0.0
2017-Nov-18 05:00N 29°56' W 093°04'0 0.0
2017-Nov-18 04:29N 29°56' W 093°04'2 2.2
2017-Nov-18 03:27N 29°56' W 093°07'3 6.3
2017-Nov-18 03:00N 29°57' W 093°10'4 6.6
2017-Nov-18 02:25N 29°60' W 093°13'2 5.4
2017-Nov-18 02:00N 30°02' W 093°14'3 5.9
2017-Nov-18 01:30N 30°04' W 093°16'2 3.5
2017-Nov-18 01:00N 30°05' W 093°18'1 2.1
2017-Nov-18 00:30N 30°06' W 093°18'0 0.0
2017-Nov-18 00:00N 30°06' W 093°18'0 0.0
2017-Nov-17 23:30N 30°06' W 093°18'0 0.0
2017-Nov-17 23:00N 30°06' W 093°18'0 0.0
2017-Nov-17 22:30N 30°06' W 093°18'0 0.0
2017-Nov-17 22:00N 30°06' W 093°18'0 0.0
2017-Nov-17 21:30N 30°06' W 093°18'0 0.0
2017-Nov-17 21:00N 30°06' W 093°18'0 0.0
2017-Nov-17 20:30N 30°06' W 093°18'0 0.0
2017-Nov-17 20:00N 30°06' W 093°18'0 0.0
2017-Nov-17 19:30N 30°06' W 093°18'0 0.0
2017-Nov-17 19:00N 30°06' W 093°18'0 0.0
2017-Nov-17 18:30N 30°06' W 093°18'0 0.0
2017-Nov-17 18:00N 30°06' W 093°18'0 0.0
2017-Nov-17 17:30N 30°06' W 093°18'0 0.0
2017-Nov-17 17:00N 30°06' W 093°18'0 0.0
2017-Nov-17 16:30N 30°06' W 093°18'0 0.0
2017-Nov-17 16:00N 30°06' W 093°18'0 0.0
2017-Nov-17 15:30N 30°06' W 093°18'0 0.0
2017-Nov-17 15:00N 30°06' W 093°18'0 0.2
2017-Nov-17 14:30N 30°06' W 093°18'0 0.5
2017-Nov-17 14:00N 30°06' W 093°18'0 0.6
2017-Nov-17 13:30N 30°06' W 093°19'2 3.3
2017-Nov-17 13:00N 30°07' W 093°20'1 1.6
2017-Nov-17 12:30N 30°08' W 093°19'0 0.0
2017-Nov-17 12:00N 30°08' W 093°19'0 0.0
2017-Nov-17 11:30N 30°08' W 093°19'0 0.0
2017-Nov-17 11:00N 30°08' W 093°19'0 0.0
2017-Nov-17 10:30N 30°08' W 093°19'0 0.0
2017-Nov-17 10:00N 30°08' W 093°19'0 0.0
2017-Nov-17 09:30N 30°08' W 093°19'0 0.0
2017-Nov-17 09:00N 30°08' W 093°19'0 0.0
2017-Nov-17 08:30N 30°08' W 093°19'0 0.0
2017-Nov-17 08:00N 30°08' W 093°19'0 0.0
2017-Nov-17 07:30N 30°08' W 093°19'0 0.5
2017-Nov-17 07:00N 30°08' W 093°20'2 3.1
2017-Nov-17 06:30N 30°07' W 093°20'1 1.9
2017-Nov-17 06:00N 30°06' W 093°19'1 1.1
2017-Nov-17 05:30N 30°06' W 093°19'1 2.0
2017-Nov-17 05:00N 30°05' W 093°18'1 2.5
2017-Nov-17 04:30N 30°05' W 093°17'0 0.0
2017-Nov-17 04:00N 30°05' W 093°17'0 0.0
2017-Nov-17 03:30N 30°05' W 093°17'0 0.0
2017-Nov-17 03:00N 30°05' W 093°17'0 0.0
2017-Nov-17 02:30N 30°05' W 093°17'0 0.0
2017-Nov-17 02:00N 30°05' W 093°17'0 0.0
2017-Nov-17 01:30N 30°05' W 093°17'0 0.9
2017-Nov-17 01:00N 30°04' W 093°16'3 5.4
2017-Nov-17 00:30N 30°02' W 093°15'3 5.2
2017-Nov-17 00:00N 29°60' W 093°13'3 5.8
2017-Nov-16 23:30N 29°58' W 093°11'3 5.4
2017-Nov-16 23:00N 29°56' W 093°08'3 5.9
2017-Nov-16 22:28N 29°56' W 093°05'0 0.7
2017-Nov-16 21:54N 29°56' W 093°04'0 0.0
2017-Nov-16 21:22N 29°56' W 093°04'0 0.0
2017-Nov-16 21:00N 29°56' W 093°04'0 0.0
2017-Nov-16 19:25N 29°56' W 093°04'0 0.0
2017-Nov-16 18:52N 29°56' W 093°04'0 0.9
2017-Nov-16 18:28N 29°56' W 093°05'0 0.5
2017-Nov-16 17:50N 29°56' W 093°04'0 1.1
2017-Nov-16 17:30N 29°56' W 093°05'0 0.3
2017-Nov-16 16:15N 29°56' W 093°04'0 0.0
2017-Nov-16 15:57N 29°56' W 093°04'0 0.0
2017-Nov-16 15:31N 29°56' W 093°04'0 0.0
2017-Nov-16 15:00N 29°56' W 093°04'0 0.0
2017-Nov-16 14:30N 29°56' W 093°04'0 0.2
2017-Nov-16 13:52N 29°56' W 093°04'0 0.3
2017-Nov-16 13:30N 29°56' W 093°04'0 0.0
2017-Nov-16 12:36N 29°56' W 093°04'0 0.0
2017-Nov-16 12:29N 29°56' W 093°04'0 0.0
2017-Nov-16 11:53N 29°56' W 093°04'0 0.0
2017-Nov-16 11:30N 29°56' W 093°04'0 0.0
2017-Nov-16 11:01N 29°56' W 093°04'0 0.0
2017-Nov-16 10:30N 29°56' W 093°04'0 0.0
2017-Nov-16 10:00N 29°56' W 093°04'0 0.0
2017-Nov-16 09:31N 29°56' W 093°04'0 0.0
2017-Nov-16 09:00N 29°56' W 093°04'0 0.0
2017-Nov-16 08:30N 29°56' W 093°04'0 0.0
2017-Nov-16 08:00N 29°56' W 093°04'0 0.0
2017-Nov-16 07:30N 29°56' W 093°04'0 0.0
2017-Nov-16 07:00N 29°56' W 093°04'0 0.0
2017-Nov-16 06:30N 29°56' W 093°04'0 0.0
2017-Nov-16 06:01N 29°56' W 093°04'0 0.0
2017-Nov-16 05:30N 29°56' W 093°04'0 0.0
2017-Nov-16 05:00N 29°56' W 093°04'0 0.0
2017-Nov-16 04:31N 29°56' W 093°04'0 0.0
2017-Nov-16 04:00N 29°56' W 093°04'0 0.0
2017-Nov-16 03:30N 29°56' W 093°04'0 0.0
2017-Nov-16 03:01N 29°56' W 093°04'0 0.0
2017-Nov-16 02:30N 29°56' W 093°04'0 0.0
2017-Nov-16 02:00N 29°56' W 093°04'0 0.0
2017-Nov-16 01:31N 29°56' W 093°04'8 3.6
2017-Nov-15 23:09N 29°60' W 093°13'1 6.0
2017-Nov-15 23:00N 30°00' W 093°14'2 4.8
2017-Nov-15 22:31N 30°02' W 093°15'3 5.7
2017-Nov-15 22:01N 30°05' W 093°17'2 3.4
2017-Nov-15 21:31N 30°06' W 093°18'0 0.8
2017-Nov-15 21:01N 30°06' W 093°18'0 0.0
2017-Nov-15 20:30N 30°06' W 093°18'2 3.7
2017-Nov-15 20:01N 30°08' W 093°20'1 1.2
2017-Nov-15 19:31N 30°08' W 093°19'0 0.0
2017-Nov-15 19:01N 30°08' W 093°19'0 0.0
2017-Nov-15 18:31N 30°08' W 093°19'0 0.0
2017-Nov-15 18:00N 30°08' W 093°19'0 0.0
2017-Nov-15 17:30N 30°08' W 093°19'0 0.0
2017-Nov-15 17:00N 30°08' W 093°19'0 0.0
2017-Nov-15 16:31N 30°08' W 093°19'0 0.0
2017-Nov-15 16:00N 30°08' W 093°19'0 0.0
2017-Nov-15 15:30N 30°08' W 093°19'0 0.0
2017-Nov-15 15:00N 30°08' W 093°19'0 0.0
2017-Nov-15 14:31N 30°08' W 093°19'0 0.1
2017-Nov-15 14:00N 30°08' W 093°19'0 0.0
2017-Nov-15 13:31N 30°08' W 093°19'0 0.0
2017-Nov-15 13:01N 30°08' W 093°19'0 0.0
2017-Nov-15 12:30N 30°08' W 093°19'0 0.0
2017-Nov-15 12:00N 30°08' W 093°19'0 0.0
2017-Nov-15 11:30N 30°08' W 093°19'0 0.0
2017-Nov-15 11:00N 30°08' W 093°19'0 0.0
2017-Nov-15 10:31N 30°08' W 093°19'0 0.0
2017-Nov-15 10:01N 30°08' W 093°19'0 0.0
2017-Nov-15 09:30N 30°08' W 093°19'0 0.0
2017-Nov-15 09:01N 30°08' W 093°19'0 0.0
2017-Nov-15 08:31N 30°08' W 093°19'0 0.0
2017-Nov-15 08:01N 30°08' W 093°19'0 0.0
2017-Nov-15 07:30N 30°08' W 093°19'0 0.1
2017-Nov-15 07:00N 30°08' W 093°19'2 4.6
2017-Nov-15 06:30N 30°06' W 093°19'2 3.1
2017-Nov-15 06:00N 30°05' W 093°18'1 2.0
2017-Nov-15 05:30N 30°05' W 093°17'0 0.3
2017-Nov-15 05:01N 30°05' W 093°16'0 0.0
2017-Nov-15 04:30N 30°05' W 093°16'0 0.0
2017-Nov-15 04:00N 30°05' W 093°16'0 0.0
2017-Nov-15 03:31N 30°05' W 093°16'0 0.0
2017-Nov-15 03:00N 30°05' W 093°16'0 0.0
2017-Nov-15 02:31N 30°05' W 093°16'0 0.0
2017-Nov-15 02:01N 30°05' W 093°16'0 0.0
2017-Nov-15 01:31N 30°05' W 093°17'0 0.0
2017-Nov-15 01:00N 30°05' W 093°17'1 1.7
2017-Nov-15 00:30N 30°04' W 093°16'2 4.1
2017-Nov-15 00:00N 30°02' W 093°15'3 5.4
2017-Nov-14 23:30N 29°60' W 093°13'3 5.9
2017-Nov-14 23:01N 29°58' W 093°11'3 5.5
2017-Nov-14 22:30N 29°56' W 093°08'3 5.9
2017-Nov-14 22:00N 29°56' W 093°05'0 0.3
2017-Nov-14 21:02N 29°56' W 093°04'0 0.0
2017-Nov-14 20:45N 29°56' W 093°04'0 0.0
2017-Nov-14 20:24N 29°56' W 093°04'0 0.0
2017-Nov-14 19:59N 29°56' W 093°04'0 0.0
2017-Nov-14 19:29N 29°56' W 093°04'0 0.0
2017-Nov-14 18:57N 29°56' W 093°04'0 0.0
2017-Nov-14 18:26N 29°56' W 093°04'0 0.0
2017-Nov-14 18:00N 29°56' W 093°04'0 0.0
2017-Nov-14 17:15N 29°56' W 093°04'0 0.0
2017-Nov-14 16:53N 29°56' W 093°04'0 0.0
2017-Nov-14 16:27N 29°56' W 093°04'0 0.0
2017-Nov-14 15:57N 29°56' W 093°04'0 0.0
2017-Nov-14 15:20N 29°56' W 093°04'0 0.0
2017-Nov-14 14:46N 29°56' W 093°04'0 0.0
2017-Nov-14 14:30N 29°56' W 093°04'0 0.0
2017-Nov-14 13:46N 29°56' W 093°04'0 0.0
2017-Nov-14 13:30N 29°56' W 093°04'16 0.4
2017-Nov-13 01:04N 30°07' W 093°18'0 0.0
2017-Nov-13 00:59N 30°07' W 093°18'0 0.0
2017-Nov-13 00:29N 30°07' W 093°18'0 0.0
2017-Nov-12 23:59N 30°07' W 093°18'0 0.8
2017-Nov-12 23:29N 30°06' W 093°18'0 0.0
2017-Nov-12 22:59N 30°06' W 093°18'0 0.0
2017-Nov-12 22:29N 30°06' W 093°18'0 0.0
2017-Nov-12 21:59N 30°06' W 093°18'0 0.0
2017-Nov-12 21:29N 30°06' W 093°18'0 0.0
2017-Nov-12 20:59N 30°06' W 093°18'0 0.0
2017-Nov-12 20:29N 30°06' W 093°18'0 0.0
2017-Nov-12 19:59N 30°06' W 093°18'0 0.0
2017-Nov-12 19:29N 30°06' W 093°18'0 0.0
2017-Nov-12 18:59N 30°06' W 093°18'0 0.0
2017-Nov-12 17:38N 30°06' W 093°18'0 0.0
2017-Nov-12 17:27N 30°06' W 093°18'0 0.0
2017-Nov-12 16:59N 30°06' W 093°18'0 0.0
2017-Nov-12 16:30N 30°06' W 093°18'0 0.0
2017-Nov-12 15:59N 30°06' W 093°18'0 0.0
2017-Nov-12 15:29N 30°06' W 093°18'0 0.0
2017-Nov-12 14:59N 30°06' W 093°18'0 0.0
2017-Nov-12 14:27N 30°06' W 093°18'0 0.0
2017-Nov-12 13:55N 30°06' W 093°18'0 0.0
2017-Nov-12 13:27N 30°06' W 093°18'0 0.0
2017-Nov-12 12:59N 30°06' W 093°18'0 0.0
2017-Nov-12 12:29N 30°06' W 093°18'0 0.0
2017-Nov-12 11:53N 30°06' W 093°18'55 3.5
2017-Nov-11 20:13N 29°50' W 092°18'1 4.8
2017-Nov-11 19:59N 29°49' W 092°17'3 5.7
2017-Nov-11 19:29N 29°48' W 092°14'2 3.9
2017-Nov-11 18:59N 29°47' W 092°12'2 4.2
2017-Nov-11 18:29N 29°47' W 092°10'3 5.5
2017-Nov-11 17:59N 29°47' W 092°07'3 5.8
2017-Nov-11 17:29N 29°48' W 092°04'3 5.2
2017-Nov-11 16:59N 29°49' W 092°01'  
Track history (hours):
 
Tides and Currents Weather Stations Pressure Air Temp Water Temp Dewpoint Dewpoint Depression Visibility Wind Speed Wind Dir Waves Ship Positions

Archie C. Settoon

Owner: Settoon Towing, LLC, Gibson, LA. More information available from US FCC via Universal Licensing System and Coast Guard Vessel Documentation Center.

Last reported at 2017-Nov-20 00:30 UTC. Time now 2017-Nov-21 19:15 UTC.
Position N 30°02' W 093°14'.

Length 18 m.

Type: Tug. MMSI: 367113590.

Date/timePositionNaut miles runAvg speedWind from/ knotsBaromVisibWave heightAir tempDewpointWater temp
2017-Nov-20 00:30N 30°02' W 093°14'3 5.7
2017-Nov-20 00:00N 30°04' W 093°16'3 5.5
2017-Nov-19 23:30N 30°06' W 093°18'0 0.1
2017-Nov-19 23:00N 30°06' W 093°18'0 0.0
2017-Nov-19 22:30N 30°06' W 093°18'0 0.0
2017-Nov-19 22:00N 30°06' W 093°18'0 0.0
2017-Nov-19 21:30N 30°06' W 093°18'0 0.0
2017-Nov-19 21:00N 30°06' W 093°18'0 0.0
2017-Nov-19 20:30N 30°06' W 093°18'0 0.2
2017-Nov-19 20:00N 30°06' W 093°18'2 4.4
2017-Nov-19 19:30N 30°08' W 093°20'1 1.7
2017-Nov-19 19:00N 30°08' W 093°19'0 0.0
2017-Nov-19 18:30N 30°08' W 093°19'0 0.0
2017-Nov-19 18:00N 30°08' W 093°19'0 0.0
2017-Nov-19 17:30N 30°08' W 093°19'0 0.0
2017-Nov-19 17:00N 30°08' W 093°19'0 0.0
2017-Nov-19 16:30N 30°08' W 093°19'0 0.0
2017-Nov-19 16:00N 30°08' W 093°19'0 0.0
2017-Nov-19 15:30N 30°08' W 093°19'0 0.0
2017-Nov-19 15:00N 30°08' W 093°19'0 0.0
2017-Nov-19 14:30N 30°08' W 093°19'0 0.0
2017-Nov-19 14:00N 30°08' W 093°19'0 0.0
2017-Nov-19 13:30N 30°08' W 093°19'0 0.0
2017-Nov-19 13:00N 30°08' W 093°19'0 0.1
2017-Nov-19 12:30N 30°08' W 093°19'1 3.0
2017-Nov-19 12:00N 30°07' W 093°20'1 2.7
2017-Nov-19 11:30N 30°06' W 093°19'2 3.4
2017-Nov-19 11:00N 30°05' W 093°17'1 3.0
2017-Nov-19 10:30N 30°04' W 093°16'0 0.0
2017-Nov-19 10:00N 30°04' W 093°16'0 0.0
2017-Nov-19 09:30N 30°04' W 093°16'0 0.0
2017-Nov-19 09:00N 30°04' W 093°16'0 0.0
2017-Nov-19 08:30N 30°04' W 093°16'0 0.0
2017-Nov-19 08:00N 30°04' W 093°16'0 0.0
2017-Nov-19 07:30N 30°04' W 093°16'0 0.0
2017-Nov-19 07:00N 30°04' W 093°16'0 0.0
2017-Nov-19 06:30N 30°04' W 093°16'0 0.0
2017-Nov-19 06:00N 30°04' W 093°16'0 0.0
2017-Nov-19 05:30N 30°04' W 093°16'0 0.0
2017-Nov-19 05:00N 30°04' W 093°16'0 0.3
2017-Nov-19 04:30N 30°04' W 093°16'1 2.6
2017-Nov-19 04:00N 30°03' W 093°16'1 1.4
2017-Nov-19 03:30N 30°02' W 093°15'0 0.1
2017-Nov-19 03:00N 30°02' W 093°15'0 0.0
2017-Nov-19 02:30N 30°02' W 093°15'0 0.0
2017-Nov-19 02:00N 30°02' W 093°15'1 2.1
2017-Nov-19 01:30N 30°02' W 093°14'0 0.8
2017-Nov-19 01:00N 30°01' W 093°14'1 1.6
2017-Nov-19 00:30N 30°00' W 093°14'3 5.5
2017-Nov-19 00:00N 29°58' W 093°12'3 5.7
2017-Nov-18 23:30N 29°56' W 093°09'3 5.5
2017-Nov-18 23:00N 29°56' W 093°06'2 3.2
2017-Nov-18 22:28N 29°56' W 093°04'0 0.0
2017-Nov-18 21:55N 29°56' W 093°04'0 0.0
2017-Nov-18 21:24N 29°56' W 093°04'0 0.0
2017-Nov-18 20:55N 29°56' W 093°04'0 0.0
2017-Nov-18 20:30N 29°56' W 093°04'0 0.0
2017-Nov-18 19:59N 29°56' W 093°04'0 0.0
2017-Nov-18 19:30N 29°56' W 093°04'0 0.0
2017-Nov-18 19:00N 29°56' W 093°04'0 0.0
2017-Nov-18 18:27N 29°56' W 093°04'0 0.0
2017-Nov-18 17:54N 29°56' W 093°04'0 0.0
2017-Nov-18 17:23N 29°56' W 093°04'0 0.0
2017-Nov-18 16:52N 29°56' W 093°04'0 0.0
2017-Nov-18 15:46N 29°56' W 093°04'0 0.0
2017-Nov-18 15:20N 29°56' W 093°04'0 0.0
2017-Nov-18 14:20N 29°56' W 093°04'0 0.0
2017-Nov-18 13:57N 29°56' W 093°04'0 0.0
2017-Nov-18 13:29N 29°56' W 093°04'0 0.0
2017-Nov-18 13:00N 29°56' W 093°04'0 0.0
2017-Nov-18 12:29N 29°56' W 093°04'0 0.0
2017-Nov-18 11:52N 29°56' W 093°04'0 0.0
2017-Nov-18 11:28N 29°56' W 093°04'0 0.0
2017-Nov-18 10:53N 29°56' W 093°04'0 0.0
2017-Nov-18 10:30N 29°56' W 093°04'0 0.0
2017-Nov-18 09:58N 29°56' W 093°04'0 0.0
2017-Nov-18 09:30N 29°56' W 093°04'0 0.0
2017-Nov-18 08:59N 29°56' W 093°04'0 0.0
2017-Nov-18 08:30N 29°56' W 093°04'0 0.0
2017-Nov-18 07:59N 29°56' W 093°04'0 0.0
2017-Nov-18 07:29N 29°56' W 093°04'0 0.0
2017-Nov-18 06:59N 29°56' W 093°04'0 0.0
2017-Nov-18 06:28N 29°56' W 093°04'0 0.0
2017-Nov-18 05:59N 29°56' W 093°04'0 0.0
2017-Nov-18 05:29N 29°56' W 093°04'0 0.0
2017-Nov-18 05:00N 29°56' W 093°04'0 0.0
2017-Nov-18 04:29N 29°56' W 093°04'2 2.2
2017-Nov-18 03:27N 29°56' W 093°07'3 6.3
2017-Nov-18 03:00N 29°57' W 093°10'4 6.6
2017-Nov-18 02:25N 29°60' W 093°13'2 5.4
2017-Nov-18 02:00N 30°02' W 093°14'3 5.9
2017-Nov-18 01:30N 30°04' W 093°16'2 3.5
2017-Nov-18 01:00N 30°05' W 093°18'1 2.1
2017-Nov-18 00:30N 30°06' W 093°18'0 0.0
2017-Nov-18 00:00N 30°06' W 093°18'0 0.0
2017-Nov-17 23:30N 30°06' W 093°18'0 0.0
2017-Nov-17 23:00N 30°06' W 093°18'0 0.0
2017-Nov-17 22:30N 30°06' W 093°18'0 0.0
2017-Nov-17 22:00N 30°06' W 093°18'0 0.0
2017-Nov-17 21:30N 30°06' W 093°18'0 0.0
2017-Nov-17 21:00N 30°06' W 093°18'0 0.0
2017-Nov-17 20:30N 30°06' W 093°18'0 0.0
2017-Nov-17 20:00N 30°06' W 093°18'0 0.0
2017-Nov-17 19:30N 30°06' W 093°18'0 0.0
2017-Nov-17 19:00N 30°06' W 093°18'0 0.0
2017-Nov-17 18:30N 30°06' W 093°18'0 0.0
2017-Nov-17 18:00N 30°06' W 093°18'0 0.0
2017-Nov-17 17:30N 30°06' W 093°18'0 0.0
2017-Nov-17 17:00N 30°06' W 093°18'0 0.0
2017-Nov-17 16:30N 30°06' W 093°18'0 0.0
2017-Nov-17 16:00N 30°06' W 093°18'0 0.0
2017-Nov-17 15:30N 30°06' W 093°18'0 0.0
2017-Nov-17 15:00N 30°06' W 093°18'0 0.2
2017-Nov-17 14:30N 30°06' W 093°18'0 0.5
2017-Nov-17 14:00N 30°06' W 093°18'0 0.6
2017-Nov-17 13:30N 30°06' W 093°19'2 3.3
2017-Nov-17 13:00N 30°07' W 093°20'1 1.6
2017-Nov-17 12:30N 30°08' W 093°19'0 0.0
2017-Nov-17 12:00N 30°08' W 093°19'0 0.0
2017-Nov-17 11:30N 30°08' W 093°19'0 0.0
2017-Nov-17 11:00N 30°08' W 093°19'0 0.0
2017-Nov-17 10:30N 30°08' W 093°19'0 0.0
2017-Nov-17 10:00N 30°08' W 093°19'0 0.0
2017-Nov-17 09:30N 30°08' W 093°19'0 0.0
2017-Nov-17 09:00N 30°08' W 093°19'0 0.0
2017-Nov-17 08:30N 30°08' W 093°19'0 0.0
2017-Nov-17 08:00N 30°08' W 093°19'0 0.0
2017-Nov-17 07:30N 30°08' W 093°19'0 0.5
2017-Nov-17 07:00N 30°08' W 093°20'2 3.1
2017-Nov-17 06:30N 30°07' W 093°20'1 1.9
2017-Nov-17 06:00N 30°06' W 093°19'1 1.1
2017-Nov-17 05:30N 30°06' W 093°19'1 2.0
2017-Nov-17 05:00N 30°05' W 093°18'1 2.5
2017-Nov-17 04:30N 30°05' W 093°17'0 0.0
2017-Nov-17 04:00N 30°05' W 093°17'0 0.0
2017-Nov-17 03:30N 30°05' W 093°17'0 0.0
2017-Nov-17 03:00N 30°05' W 093°17'0 0.0
2017-Nov-17 02:30N 30°05' W 093°17'0 0.0
2017-Nov-17 02:00N 30°05' W 093°17'0 0.0
2017-Nov-17 01:30N 30°05' W 093°17'0 0.9
2017-Nov-17 01:00N 30°04' W 093°16'3 5.4
2017-Nov-17 00:30N 30°02' W 093°15'3 5.2
2017-Nov-17 00:00N 29°60' W 093°13'3 5.8
2017-Nov-16 23:30N 29°58' W 093°11'3 5.4
2017-Nov-16 23:00N 29°56' W 093°08'3 5.9
2017-Nov-16 22:28N 29°56' W 093°05'0 0.7
2017-Nov-16 21:54N 29°56' W 093°04'0 0.0
2017-Nov-16 21:22N 29°56' W 093°04'0 0.0
2017-Nov-16 21:00N 29°56' W 093°04'0 0.0
2017-Nov-16 19:25N 29°56' W 093°04'0 0.0
2017-Nov-16 18:52N 29°56' W 093°04'0 0.9
2017-Nov-16 18:28N 29°56' W 093°05'0 0.5
2017-Nov-16 17:50N 29°56' W 093°04'0 1.1
2017-Nov-16 17:30N 29°56' W 093°05'0 0.3
2017-Nov-16 16:15N 29°56' W 093°04'0 0.0
2017-Nov-16 15:57N 29°56' W 093°04'0 0.0
2017-Nov-16 15:31N 29°56' W 093°04'0 0.0
2017-Nov-16 15:00N 29°56' W 093°04'0 0.0
2017-Nov-16 14:30N 29°56' W 093°04'0 0.2
2017-Nov-16 13:52N 29°56' W 093°04'0 0.3
2017-Nov-16 13:30N 29°56' W 093°04'0 0.0
2017-Nov-16 12:36N 29°56' W 093°04'0 0.0
2017-Nov-16 12:29N 29°56' W 093°04'0 0.0
2017-Nov-16 11:53N 29°56' W 093°04'0 0.0
2017-Nov-16 11:30N 29°56' W 093°04'0 0.0
2017-Nov-16 11:01N 29°56' W 093°04'0 0.0
2017-Nov-16 10:30N 29°56' W 093°04'0 0.0
2017-Nov-16 10:00N 29°56' W 093°04'0 0.0
2017-Nov-16 09:31N 29°56' W 093°04'0 0.0
2017-Nov-16 09:00N 29°56' W 093°04'0 0.0
2017-Nov-16 08:30N 29°56' W 093°04'0 0.0
2017-Nov-16 08:00N 29°56' W 093°04'0 0.0
2017-Nov-16 07:30N 29°56' W 093°04'0 0.0
2017-Nov-16 07:00N 29°56' W 093°04'0 0.0
2017-Nov-16 06:30N 29°56' W 093°04'0 0.0
2017-Nov-16 06:01N 29°56' W 093°04'0 0.0
2017-Nov-16 05:30N 29°56' W 093°04'0 0.0
2017-Nov-16 05:00N 29°56' W 093°04'0 0.0
2017-Nov-16 04:31N 29°56' W 093°04'0 0.0
2017-Nov-16 04:00N 29°56' W 093°04'0 0.0
2017-Nov-16 03:30N 29°56' W 093°04'0 0.0
2017-Nov-16 03:01N 29°56' W 093°04'0 0.0
2017-Nov-16 02:30N 29°56' W 093°04'0 0.0
2017-Nov-16 02:00N 29°56' W 093°04'0 0.0
2017-Nov-16 01:31N 29°56' W 093°04'8 3.6
2017-Nov-15 23:09N 29°60' W 093°13'1 6.0
2017-Nov-15 23:00N 30°00' W 093°14'2 4.8
2017-Nov-15 22:31N 30°02' W 093°15'3 5.7
2017-Nov-15 22:01N 30°05' W 093°17'2 3.4
2017-Nov-15 21:31N 30°06' W 093°18'0 0.8
2017-Nov-15 21:01N 30°06' W 093°18'0 0.0
2017-Nov-15 20:30N 30°06' W 093°18'2 3.7
2017-Nov-15 20:01N 30°08' W 093°20'1 1.2
2017-Nov-15 19:31N 30°08' W 093°19'0 0.0
2017-Nov-15 19:01N 30°08' W 093°19'0 0.0
2017-Nov-15 18:31N 30°08' W 093°19'0 0.0
2017-Nov-15 18:00N 30°08' W 093°19'0 0.0
2017-Nov-15 17:30N 30°08' W 093°19'0 0.0
2017-Nov-15 17:00N 30°08' W 093°19'0 0.0
2017-Nov-15 16:31N 30°08' W 093°19'0 0.0
2017-Nov-15 16:00N 30°08' W 093°19'0 0.0
2017-Nov-15 15:30N 30°08' W 093°19'0 0.0
2017-Nov-15 15:00N 30°08' W 093°19'0 0.0
2017-Nov-15 14:31N 30°08' W 093°19'0 0.1
2017-Nov-15 14:00N 30°08' W 093°19'0 0.0
2017-Nov-15 13:31N 30°08' W 093°19'0 0.0
2017-Nov-15 13:01N 30°08' W 093°19'0 0.0
2017-Nov-15 12:30N 30°08' W 093°19'0 0.0
2017-Nov-15 12:00N 30°08' W 093°19'0 0.0
2017-Nov-15 11:30N 30°08' W 093°19'0 0.0
2017-Nov-15 11:00N 30°08' W 093°19'0 0.0
2017-Nov-15 10:31N 30°08' W 093°19'0 0.0
2017-Nov-15 10:01N 30°08' W 093°19'0 0.0
2017-Nov-15 09:30N 30°08' W 093°19'0 0.0
2017-Nov-15 09:01N 30°08' W 093°19'0 0.0
2017-Nov-15 08:31N 30°08' W 093°19'0 0.0
2017-Nov-15 08:01N 30°08' W 093°19'0 0.0
2017-Nov-15 07:30N 30°08' W 093°19'0 0.1
2017-Nov-15 07:00N 30°08' W 093°19'2 4.6
2017-Nov-15 06:30N 30°06' W 093°19'2 3.1
2017-Nov-15 06:00N 30°05' W 093°18'1 2.0
2017-Nov-15 05:30N 30°05' W 093°17'0 0.3
2017-Nov-15 05:01N 30°05' W 093°16'0 0.0
2017-Nov-15 04:30N 30°05' W 093°16'0 0.0
2017-Nov-15 04:00N 30°05' W 093°16'0 0.0
2017-Nov-15 03:31N 30°05' W 093°16'0 0.0
2017-Nov-15 03:00N 30°05' W 093°16'0 0.0
2017-Nov-15 02:31N 30°05' W 093°16'0 0.0
2017-Nov-15 02:01N 30°05' W 093°16'0 0.0
2017-Nov-15 01:31N 30°05' W 093°17'0 0.0
2017-Nov-15 01:00N 30°05' W 093°17'1 1.7
2017-Nov-15 00:30N 30°04' W 093°16'2 4.1
2017-Nov-15 00:00N 30°02' W 093°15'3 5.4
2017-Nov-14 23:30N 29°60' W 093°13'3 5.9
2017-Nov-14 23:01N 29°58' W 093°11'3 5.5
2017-Nov-14 22:30N 29°56' W 093°08'3 5.9
2017-Nov-14 22:00N 29°56' W 093°05'0 0.3
2017-Nov-14 21:02N 29°56' W 093°04'0 0.0
2017-Nov-14 20:45N 29°56' W 093°04'0 0.0
2017-Nov-14 20:24N 29°56' W 093°04'0 0.0
2017-Nov-14 19:59N 29°56' W 093°04'0 0.0
2017-Nov-14 19:29N 29°56' W 093°04'0 0.0
2017-Nov-14 18:57N 29°56' W 093°04'0 0.0
2017-Nov-14 18:26N 29°56' W 093°04'0 0.0
2017-Nov-14 18:00N 29°56' W 093°04'0 0.0
2017-Nov-14 17:15N 29°56' W 093°04'0 0.0
2017-Nov-14 16:53N 29°56' W 093°04'0 0.0
2017-Nov-14 16:27N 29°56' W 093°04'0 0.0
2017-Nov-14 15:57N 29°56' W 093°04'0 0.0
2017-Nov-14 15:20N 29°56' W 093°04'0 0.0
2017-Nov-14 14:46N 29°56' W 093°04'0 0.0
2017-Nov-14 14:30N 29°56' W 093°04'0 0.0
2017-Nov-14 13:46N 29°56' W 093°04'0 0.0
2017-Nov-14 13:30N 29°56' W 093°04'16 0.4
2017-Nov-13 01:04N 30°07' W 093°18'0 0.0
2017-Nov-13 00:59N 30°07' W 093°18'0 0.0
2017-Nov-13 00:29N 30°07' W 093°18'0 0.0
2017-Nov-12 23:59N 30°07' W 093°18'0 0.8
2017-Nov-12 23:29N 30°06' W 093°18'0 0.0
2017-Nov-12 22:59N 30°06' W 093°18'0 0.0
2017-Nov-12 22:29N 30°06' W 093°18'0 0.0
2017-Nov-12 21:59N 30°06' W 093°18'0 0.0
2017-Nov-12 21:29N 30°06' W 093°18'0 0.0
2017-Nov-12 20:59N 30°06' W 093°18'0 0.0
2017-Nov-12 20:29N 30°06' W 093°18'0 0.0
2017-Nov-12 19:59N 30°06' W 093°18'0 0.0
2017-Nov-12 19:29N 30°06' W 093°18'0 0.0
2017-Nov-12 18:59N 30°06' W 093°18'0 0.0
2017-Nov-12 17:38N 30°06' W 093°18'0 0.0
2017-Nov-12 17:27N 30°06' W 093°18'0 0.0
2017-Nov-12 16:59N 30°06' W 093°18'0 0.0
2017-Nov-12 16:30N 30°06' W 093°18'0 0.0
2017-Nov-12 15:59N 30°06' W 093°18'0 0.0
2017-Nov-12 15:29N 30°06' W 093°18'0 0.0
2017-Nov-12 14:59N 30°06' W 093°18'0 0.0
2017-Nov-12 14:27N 30°06' W 093°18'0 0.0
2017-Nov-12 13:55N 30°06' W 093°18'0 0.0
2017-Nov-12 13:27N 30°06' W 093°18'0 0.0
2017-Nov-12 12:59N 30°06' W 093°18'0 0.0
2017-Nov-12 12:29N 30°06' W 093°18'0 0.0
2017-Nov-12 11:53N 30°06' W 093°18'55 3.5
2017-Nov-11 20:13N 29°50' W 092°18'1 4.8
2017-Nov-11 19:59N 29°49' W 092°17'3 5.7
2017-Nov-11 19:29N 29°48' W 092°14'2 3.9
2017-Nov-11 18:59N 29°47' W 092°12'2 4.2
2017-Nov-11 18:29N 29°47' W 092°10'3 5.5
2017-Nov-11 17:59N 29°47' W 092°07'3 5.8
2017-Nov-11 17:29N 29°48' W 092°04'3 5.2
2017-Nov-11 16:59N 29°49' W 092°01'  

Dump ship's entire track history